Station Historical Data
Daily Summary for July 2, 2017 Units:  English    Metric   Both
« Previous Day
Next Day »
Daily Weekly Monthly Yearly Custom
  High: Low: Average:
Temperature: 79.1 °F 58.6 °F 70.1 °F
Dew Point: 68.0 °F 56.3 °F 61.8 °F
Humidity: 93% 56% 76%
Wind Speed: 18.0mph 0.0mph 4.3mph
Wind Gust: 26.0mph - -
Wind- - SW
Pressure: 29.99 in 29.92 in -
Precipitation: 0.00 in    
Historical Graphs
 
 
Tabular Data for July 2, 2017
Time Temperature Dew Point Pressure Wind Wind Speed Wind Gust Humidity Rainfall Rate (Hourly)
00:04 65.8 °F 61.2 °F 29.92 in Calm     85% 0.00 in
00:09 65.7 °F 61.1 °F 29.92 in Calm     85% 0.00 in
00:14 65.3 °F 61.0 °F 29.92 in Calm     86% 0.00 in
00:19 64.9 °F 60.3 °F 29.92 in Calm   5.0 mph 85% 0.00 in
00:24 64.6 °F 60.3 °F 29.92 in South 1.0 mph 5.0 mph 86% 0.00 in
00:29 64.5 °F 60.2 °F 29.92 in Calm   3.0 mph 86% 0.00 in
00:34 64.3 °F 60.0 °F 29.92 in Calm   3.0 mph 86% 0.00 in
00:39 64.0 °F 59.7 °F 29.92 in Calm   2.0 mph 86% 0.00 in
00:44 63.9 °F 60.0 °F 29.92 in Calm   2.0 mph 87% 0.00 in
00:49 63.8 °F 59.5 °F 29.92 in South 1.0 mph 3.0 mph 86% 0.00 in
00:54 63.8 °F 59.5 °F 29.92 in South 2.0 mph 3.0 mph 86% 0.00 in
00:59 63.8 °F 59.5 °F 29.92 in Calm   2.0 mph 86% 0.00 in
01:05 64.0 °F 59.7 °F 29.93 in Calm   3.0 mph 86% 0.00 in
01:10 64.2 °F 59.9 °F 29.93 in Calm     86% 0.00 in
01:15 64.4 °F 59.8 °F 29.93 in Calm     85% 0.00 in
01:20 64.7 °F 60.1 °F 29.93 in Calm   1.0 mph 85% 0.00 in
01:25 64.6 °F 59.7 °F 29.93 in Calm   2.0 mph 84% 0.00 in
01:30 64.4 °F 59.5 °F 29.93 in Calm     84% 0.00 in
01:35 64.2 °F 59.3 °F 29.93 in Calm     84% 0.00 in
01:40 64.0 °F 59.1 °F 29.93 in Calm     84% 0.00 in
01:45 63.7 °F 59.1 °F 29.93 in Calm     85% 0.00 in
01:50 63.6 °F 59.0 °F 29.93 in Calm     85% 0.00 in
01:55 63.6 °F 59.0 °F 29.93 in Calm     85% 0.00 in
02:00 63.6 °F 59.3 °F 29.93 in Calm     86% 0.00 in
02:05 63.7 °F 59.1 °F 29.93 in Calm     85% 0.00 in
02:10 63.7 °F 59.1 °F 29.93 in Calm     85% 0.00 in
02:15 63.6 °F 59.0 °F 29.93 in Calm     85% 0.00 in
02:20 63.4 °F 58.8 °F 29.93 in Calm     85% 0.00 in
02:25 63.3 °F 58.7 °F 29.93 in Calm     85% 0.00 in
02:30 63.2 °F 58.9 °F 29.93 in Calm     86% 0.00 in
02:35 63.1 °F 58.8 °F 29.93 in Calm     86% 0.00 in
02:40 62.9 °F 58.6 °F 29.93 in Calm     86% 0.00 in
02:45 62.7 °F 58.8 °F 29.93 in Calm     87% 0.00 in
02:50 62.5 °F 58.6 °F 29.93 in Calm     87% 0.00 in
02:55 62.2 °F 58.3 °F 29.94 in Calm     87% 0.00 in
03:00 62.0 °F 58.4 °F 29.93 in Calm     88% 0.00 in
03:05 61.9 °F 58.3 °F 29.93 in Calm     88% 0.00 in
03:10 61.9 °F 58.3 °F 29.93 in Calm     88% 0.00 in
03:15 61.7 °F 58.1 °F 29.93 in Calm     88% 0.00 in
03:20 61.5 °F 57.9 °F 29.93 in Calm     88% 0.00 in
03:25 61.3 °F 57.7 °F 29.93 in Calm     88% 0.00 in
03:30 61.1 °F 57.8 °F 29.93 in Calm     89% 0.00 in
03:35 61.0 °F 57.7 °F 29.93 in Calm     89% 0.00 in
03:40 60.9 °F 57.6 °F 29.93 in Calm     89% 0.00 in
03:45 60.8 °F 57.5 °F 29.93 in Calm     89% 0.00 in
03:50 60.6 °F 57.3 °F 29.93 in Calm     89% 0.00 in
03:55 60.6 °F 57.7 °F 29.94 in Calm     90% 0.00 in
04:00 60.5 °F 57.6 °F 29.94 in Calm     90% 0.00 in
04:05 60.6 °F 57.7 °F 29.94 in Calm     90% 0.00 in
04:10 60.5 °F 57.6 °F 29.94 in Calm     90% 0.00 in
04:15 60.5 °F 57.6 °F 29.94 in Calm     90% 0.00 in
04:20 60.4 °F 57.5 °F 29.94 in Calm     90% 0.00 in
04:25 60.3 °F 57.4 °F 29.94 in Calm     90% 0.00 in
04:29 60.2 °F 57.6 °F 29.94 in Calm     91% 0.00 in
04:34 60.1 °F 57.5 °F 29.94 in Calm     91% 0.00 in
04:40 59.9 °F 57.3 °F 29.94 in Calm     91% 0.00 in
04:45 59.8 °F 57.2 °F 29.94 in Calm     91% 0.00 in
04:50 59.8 °F 57.2 °F 29.94 in Calm     91% 0.00 in
04:55 59.8 °F 57.2 °F 29.94 in Calm     91% 0.00 in
05:00 59.6 °F 57.0 °F 29.94 in Calm     91% 0.00 in
05:05 59.5 °F 56.9 °F 29.94 in Calm     91% 0.00 in
05:10 59.5 °F 56.9 °F 29.94 in Calm     91% 0.00 in
05:15 59.4 °F 57.1 °F 29.94 in Calm     92% 0.00 in
05:20 59.3 °F 57.0 °F 29.94 in Calm     92% 0.00 in
05:25 59.2 °F 56.9 °F 29.94 in Calm     92% 0.00 in
05:30 59.1 °F 56.8 °F 29.94 in Calm     92% 0.00 in
05:35 59.1 °F 56.8 °F 29.94 in Calm     92% 0.00 in
05:40 58.9 °F 56.6 °F 29.95 in Calm     92% 0.00 in
05:45 58.9 °F 56.6 °F 29.95 in Calm     92% 0.00 in
05:49 58.9 °F 56.6 °F 29.95 in Calm     92% 0.00 in
05:55 58.9 °F 56.6 °F 29.95 in Calm     92% 0.00 in
06:00 58.8 °F 56.5 °F 29.95 in Calm     92% 0.00 in
06:05 58.8 °F 56.5 °F 29.95 in Calm     92% 0.00 in
06:10 58.6 °F 56.3 °F 29.95 in Calm     92% 0.00 in
06:15 58.8 °F 56.5 °F 29.96 in Calm     92% 0.00 in
06:20 58.9 °F 56.6 °F 29.96 in Calm     92% 0.00 in
06:25 59.0 °F 56.7 °F 29.96 in Calm     92% 0.00 in
06:30 59.4 °F 57.4 °F 29.97 in Calm     93% 0.00 in
06:35 59.8 °F 57.8 °F 29.96 in Calm     93% 0.00 in
06:40 60.3 °F 58.3 °F 29.96 in Calm     93% 0.00 in
06:45 61.0 °F 59.0 °F 29.97 in Calm     93% 0.00 in
06:50 61.4 °F 59.4 °F 29.97 in Calm     93% 0.00 in
06:55 61.6 °F 59.6 °F 29.97 in Calm     93% 0.00 in
07:00 62.0 °F 59.6 °F 29.97 in Calm     92% 0.00 in
07:04 62.5 °F 60.1 °F 29.97 in Calm     92% 0.00 in
07:10 63.1 °F 60.4 °F 29.97 in Calm     91% 0.00 in
07:15 63.6 °F 60.6 °F 29.97 in Calm     90% 0.00 in
07:20 64.4 °F 60.4 °F 29.97 in Calm     87% 0.00 in
07:25 65.2 °F 60.6 °F 29.97 in Calm     85% 0.00 in
07:29 65.8 °F 60.2 °F 29.97 in Calm   2.0 mph 82% 0.00 in
07:35 66.3 °F 61.0 °F 29.97 in SSW 1.0 mph 3.0 mph 83% 0.00 in
07:40 66.4 °F 61.1 °F 29.97 in SSW 1.0 mph 3.0 mph 83% 0.00 in
07:45 67.2 °F 61.9 °F 29.97 in Calm   2.0 mph 83% 0.00 in
07:50 67.2 °F 61.9 °F 29.97 in Calm     83% 0.00 in
07:55 67.3 °F 61.6 °F 29.97 in Calm     82% 0.00 in
08:00 67.4 °F 62.1 °F 29.97 in Calm   4.0 mph 83% 0.00 in
08:04 67.7 °F 62.0 °F 29.97 in SSW 1.0 mph 4.0 mph 82% 0.00 in
08:10 68.4 °F 62.3 °F 29.97 in SSW 1.0 mph 5.0 mph 81% 0.00 in
08:15 68.6 °F 62.5 °F 29.97 in SW 1.0 mph 5.0 mph 81% 0.00 in
08:20 68.7 °F 62.3 °F 29.97 in SSW 2.0 mph 4.0 mph 80% 0.00 in
08:25 68.9 °F 62.8 °F 29.97 in SSW 2.0 mph 6.0 mph 81% 0.00 in
08:34 69.2 °F 62.8 °F 29.97 in South 2.0 mph 7.0 mph 80% 0.00 in
08:40 69.0 °F 62.2 °F 29.97 in SSW 2.0 mph 7.0 mph 79% 0.00 in
08:45 69.6 °F 63.5 °F 29.97 in South 2.0 mph 6.0 mph 81% 0.00 in
08:50 69.3 °F 62.9 °F 29.97 in SSW 5.0 mph 6.0 mph 80% 0.00 in
08:54 69.8 °F 63.3 °F 29.97 in SW 3.0 mph 6.0 mph 80% 0.00 in
08:59 70.0 °F 63.2 °F 29.97 in SW 3.0 mph 6.0 mph 79% 0.00 in
09:05 70.5 °F 63.7 °F 29.97 in SSW 2.0 mph 6.0 mph 79% 0.00 in
09:10 71.2 °F 64.0 °F 29.98 in SSW 2.0 mph 5.0 mph 78% 0.00 in
09:15 71.4 °F 63.4 °F 29.98 in SSW 3.0 mph 7.0 mph 76% 0.00 in
09:20 71.8 °F 63.8 °F 29.98 in SW 3.0 mph 7.0 mph 76% 0.00 in
09:24 72.3 °F 64.3 °F 29.98 in WSW 4.0 mph 6.0 mph 76% 0.00 in
09:30 72.4 °F 64.0 °F 29.98 in SSW 3.0 mph 6.0 mph 75% 0.00 in
09:34 72.8 °F 64.4 °F 29.98 in SW 2.0 mph 6.0 mph 75% 0.00 in
09:40 73.3 °F 64.9 °F 29.98 in SSW 4.0 mph 8.0 mph 75% 0.00 in
09:44 72.8 °F 64.4 °F 29.98 in SW 4.0 mph 7.0 mph 75% 0.00 in
09:50 72.6 °F 64.2 °F 29.98 in WSW 4.0 mph 7.0 mph 75% 0.00 in
09:54 72.4 °F 64.0 °F 29.98 in WSW 4.0 mph 7.0 mph 75% 0.00 in
09:59 72.5 °F 64.1 °F 29.98 in WSW 3.0 mph 6.0 mph 75% 0.00 in
10:05 73.4 °F 65.0 °F 29.98 in WSW 3.0 mph 8.0 mph 75% 0.00 in
10:10 73.4 °F 64.6 °F 29.98 in WSW 4.0 mph 8.0 mph 74% 0.00 in
10:15 73.7 °F 65.3 °F 29.98 in WSW 5.0 mph 7.0 mph 75% 0.00 in
10:20 73.8 °F 64.6 °F 29.98 in WSW 5.0 mph 6.0 mph 73% 0.00 in
10:24 73.9 °F 64.3 °F 29.98 in WSW 4.0 mph 8.0 mph 72% 0.00 in
10:30 73.3 °F 64.1 °F 29.98 in WSW 3.0 mph 8.0 mph 73% 0.00 in
10:35 73.9 °F 64.3 °F 29.98 in WSW 4.0 mph 8.0 mph 72% 0.00 in
10:39 73.7 °F 64.1 °F 29.98 in SW 3.0 mph 7.0 mph 72% 0.00 in
10:44 74.6 °F 66.5 °F 29.98 in South 2.0 mph 7.0 mph 76% 0.00 in
10:49 75.0 °F 65.4 °F 29.98 in SSW 6.0 mph 8.0 mph 72% 0.00 in
10:54 74.8 °F 64.4 °F 29.99 in SW 5.0 mph 10.0 mph 70% 0.00 in
10:59 74.6 °F 63.8 °F 29.98 in WSW 5.0 mph 10.0 mph 69% 0.00 in
11:05 74.4 °F 64.0 °F 29.98 in SW 3.0 mph 7.0 mph 70% 0.00 in
11:10 74.6 °F 64.2 °F 29.98 in WSW 7.0 mph 10.0 mph 70% 0.00 in
11:15 76.0 °F 65.5 °F 29.98 in West 6.0 mph 8.0 mph 70% 0.00 in
11:20 76.1 °F 65.6 °F 29.98 in West 4.0 mph 8.0 mph 70% 0.00 in
11:24 75.7 °F 65.2 °F 29.98 in WSW 5.0 mph 9.0 mph 70% 0.00 in
11:29 75.5 °F 65.4 °F 29.98 in WSW 5.0 mph 9.0 mph 71% 0.00 in
11:34 75.1 °F 64.6 °F 29.98 in WSW 5.0 mph 9.0 mph 70% 0.00 in
11:40 75.1 °F 65.5 °F 29.98 in WSW 5.0 mph 9.0 mph 72% 0.00 in
11:45 75.0 °F 65.0 °F 29.99 in WSW 5.0 mph 9.0 mph 71% 0.00 in
11:49 74.4 °F 65.2 °F 29.99 in West 7.0 mph 10.0 mph 73% 0.00 in
11:54 74.6 °F 65.4 °F 29.98 in WSW 3.0 mph 10.0 mph 73% 0.00 in
11:59 76.7 °F 67.4 °F 29.98 in WSW 2.0 mph 9.0 mph 73% 0.00 in
12:05 77.2 °F 66.7 °F 29.98 in SSW 6.0 mph 8.0 mph 70% 0.00 in
12:10 76.4 °F 65.5 °F 29.98 in WSW 3.0 mph 12.0 mph 69% 0.00 in
12:14 76.1 °F 65.6 °F 29.98 in SSW 5.0 mph 12.0 mph 70% 0.00 in
12:19 76.2 °F 66.9 °F 29.98 in SSW 4.0 mph 9.0 mph 73% 0.00 in
12:25 76.2 °F 65.3 °F 29.98 in WSW 3.0 mph 10.0 mph 69% 0.00 in
12:29 75.3 °F 65.2 °F 29.98 in SW 5.0 mph 10.0 mph 71% 0.00 in
12:35 75.1 °F 65.5 °F 29.98 in SW 5.0 mph 14.0 mph 72% 0.00 in
12:39 75.0 °F 65.4 °F 29.98 in SW 6.0 mph 14.0 mph 72% 0.00 in
12:45 75.6 °F 66.3 °F 29.98 in WSW 5.0 mph 13.0 mph 73% 0.00 in
12:50 75.6 °F 65.9 °F 29.98 in West 3.0 mph 13.0 mph 72% 0.00 in
12:54 75.1 °F 65.5 °F 29.99 in WSW 6.0 mph 13.0 mph 72% 0.00 in
12:59 75.3 °F 66.0 °F 29.98 in SSW 5.0 mph 12.0 mph 73% 0.00 in
13:04 76.2 °F 66.9 °F 29.98 in SW 4.0 mph 11.0 mph 73% 0.00 in
13:09 76.8 °F 67.5 °F 29.97 in West 3.0 mph 12.0 mph 73% 0.00 in
13:14 77.7 °F 68.0 °F 29.97 in West 5.0 mph 10.0 mph 72% 0.00 in
13:19 77.1 °F 66.1 °F 29.97 in WSW 4.0 mph 11.0 mph 69% 0.00 in
13:24 77.8 °F 67.2 °F 29.97 in SW 6.0 mph 12.0 mph 70% 0.00 in
13:30 77.7 °F 66.7 °F 29.97 in SW 6.0 mph 12.0 mph 69% 0.00 in
13:34 77.8 °F 66.0 °F 29.97 in SW 6.0 mph 14.0 mph 67% 0.00 in
13:39 76.9 °F 66.4 °F 29.97 in WSW 7.0 mph 14.0 mph 70% 0.00 in
13:45 76.3 °F 65.4 °F 29.97 in WSW 6.0 mph 12.0 mph 69% 0.00 in
13:50 76.4 °F 65.9 °F 29.97 in SW 5.0 mph 14.0 mph 70% 0.00 in
13:54 77.2 °F 66.7 °F 29.97 in WSW 7.0 mph 14.0 mph 70% 0.00 in
13:59 77.0 °F 65.2 °F 29.97 in WSW 7.0 mph 13.0 mph 67% 0.00 in
14:05 77.4 °F 66.0 °F 29.97 in West 8.0 mph 13.0 mph 68% 0.00 in
14:09 77.9 °F 66.5 °F 29.97 in SW 11.0 mph 15.0 mph 68% 0.00 in
14:14 78.5 °F 66.6 °F 29.97 in SW 7.0 mph 11.0 mph 67% 0.00 in
14:19 78.4 °F 67.0 °F 29.97 in SW 9.0 mph 10.0 mph 68% 0.00 in
14:24 77.8 °F 65.5 °F 29.97 in WSW 7.0 mph 16.0 mph 66% 0.00 in
14:29 77.2 °F 65.4 °F 29.96 in WSW 8.0 mph 17.0 mph 67% 0.00 in
14:34 77.6 °F 66.2 °F 29.96 in SW 5.0 mph 15.0 mph 68% 0.00 in
14:40 78.3 °F 66.0 °F 29.96 in SW 9.0 mph 13.0 mph 66% 0.00 in
14:45 78.4 °F 64.8 °F 29.96 in West 11.0 mph 15.0 mph 63% 0.00 in
14:49 78.9 °F 65.2 °F 29.96 in WSW 4.0 mph 15.0 mph 63% 0.00 in
14:54 78.7 °F 64.6 °F 29.96 in WSW 8.0 mph 17.0 mph 62% 0.00 in
14:59 78.8 °F 63.3 °F 29.96 in WSW 7.0 mph 17.0 mph 59% 0.00 in
15:04 79.1 °F 63.1 °F 29.96 in WSW 8.0 mph 16.0 mph 58% 0.00 in
15:10 78.8 °F 62.3 °F 29.95 in WSW 8.0 mph 16.0 mph 57% 0.00 in
15:14 78.3 °F 61.3 °F 29.95 in SW 9.0 mph 19.0 mph 56% 0.00 in
15:20 78.5 °F 62.5 °F 29.95 in SW 9.0 mph 19.0 mph 58% 0.00 in
15:24 77.8 °F 61.8 °F 29.96 in SW 17.0 mph 19.0 mph 58% 0.00 in
15:29 77.7 °F 63.2 °F 29.96 in WSW 9.0 mph 17.0 mph 61% 0.00 in
15:34 77.6 °F 62.6 °F 29.96 in WSW 6.0 mph 18.0 mph 60% 0.00 in
15:39 78.1 °F 64.5 °F 29.96 in WSW 8.0 mph 12.0 mph 63% 0.00 in
15:44 78.0 °F 63.0 °F 29.96 in SSW 6.0 mph 20.0 mph 60% 0.00 in
15:49 78.2 °F 63.2 °F 29.96 in WSW 11.0 mph 20.0 mph 60% 0.00 in
15:54 77.2 °F 61.8 °F 29.96 in WSW 11.0 mph 26.0 mph 59% 0.00 in
15:59 77.2 °F 62.2 °F 29.96 in WSW 11.0 mph 26.0 mph 60% 0.00 in
16:05 77.2 °F 62.2 °F 29.96 in WSW 11.0 mph 24.0 mph 60% 0.00 in
16:09 77.3 °F 62.8 °F 29.96 in WSW 10.0 mph 21.0 mph 61% 0.00 in
16:15 77.4 °F 61.9 °F 29.96 in WSW 9.0 mph 21.0 mph 59% 0.00 in
16:20 77.4 °F 62.9 °F 29.96 in WSW 12.0 mph 22.0 mph 61% 0.00 in
16:24 77.6 °F 63.1 °F 29.96 in WSW 10.0 mph 22.0 mph 61% 0.00 in
16:29 76.1 °F 62.1 °F 29.96 in WSW 11.0 mph 18.0 mph 62% 0.00 in
16:34 75.0 °F 62.4 °F 29.95 in WSW 7.0 mph 21.0 mph 65% 0.00 in
16:39 75.6 °F 62.6 °F 29.95 in West 4.0 mph 17.0 mph 64% 0.00 in
16:44 76.5 °F 62.5 °F 29.95 in SW 12.0 mph 22.0 mph 62% 0.00 in
16:49 76.9 °F 62.9 °F 29.96 in SSW 11.0 mph 22.0 mph 62% 0.00 in
16:54 76.9 °F 62.9 °F 29.96 in WSW 16.0 mph 22.0 mph 62% 0.00 in
16:59 76.8 °F 62.8 °F 29.95 in WSW 10.0 mph 22.0 mph 62% 0.00 in
17:04 76.7 °F 63.2 °F 29.95 in WSW 10.0 mph 20.0 mph 63% 0.00 in
17:09 76.5 °F 63.0 °F 29.95 in SW 18.0 mph 18.0 mph 63% 0.00 in
17:14 76.8 °F 63.7 °F 29.96 in WSW 14.0 mph 18.0 mph 64% 0.00 in
17:19 76.5 °F 63.0 °F 29.95 in WSW 9.0 mph 21.0 mph 63% 0.00 in
17:24 76.1 °F 62.6 °F 29.95 in WSW 12.0 mph 21.0 mph 63% 0.00 in
17:29 76.0 °F 62.5 °F 29.95 in WSW 11.0 mph 23.0 mph 63% 0.00 in
17:34 76.1 °F 62.6 °F 29.95 in WSW 11.0 mph 23.0 mph 63% 0.00 in
17:39 76.4 °F 62.0 °F 29.95 in WSW 9.0 mph 20.0 mph 61% 0.00 in
17:44 76.4 °F 62.4 °F 29.95 in SW 15.0 mph 17.0 mph 62% 0.00 in
17:49 76.4 °F 62.4 °F 29.95 in WSW 7.0 mph 19.0 mph 62% 0.00 in
17:54 76.1 °F 62.1 °F 29.95 in WSW 9.0 mph 19.0 mph 62% 0.00 in
17:59 75.9 °F 61.9 °F 29.95 in WNW 7.0 mph 21.0 mph 62% 0.00 in
18:04 75.8 °F 62.3 °F 29.95 in WSW 9.0 mph 21.0 mph 63% 0.00 in
18:09 76.0 °F 62.5 °F 29.95 in West 12.0 mph 23.0 mph 63% 0.00 in
18:14 75.4 °F 62.4 °F 29.95 in WSW 11.0 mph 16.0 mph 64% 0.00 in
18:19 75.3 °F 62.3 °F 29.94 in West 6.0 mph 15.0 mph 64% 0.00 in
18:24 74.9 °F 61.9 °F 29.95 in SW 8.0 mph 18.0 mph 64% 0.00 in
18:29 74.6 °F 62.1 °F 29.95 in SW 9.0 mph 20.0 mph 65% 0.00 in
18:34 74.6 °F 61.6 °F 29.95 in WSW 8.0 mph 20.0 mph 64% 0.00 in
18:39 74.7 °F 61.7 °F 29.95 in WSW 8.0 mph 21.0 mph 64% 0.00 in
18:44 74.4 °F 61.4 °F 29.95 in SW 10.0 mph 19.0 mph 64% 0.00 in
18:49 74.3 °F 61.3 °F 29.95 in SW 12.0 mph 22.0 mph 64% 0.00 in
18:54 74.2 °F 61.2 °F 29.95 in WSW 9.0 mph 22.0 mph 64% 0.00 in
18:59 74.1 °F 61.1 °F 29.95 in WSW 9.0 mph 17.0 mph 64% 0.00 in
19:04 74.2 °F 61.2 °F 29.95 in SSE 9.0 mph 18.0 mph 64% 0.00 in
19:09 74.0 °F 61.0 °F 29.95 in WSW 7.0 mph 14.0 mph 64% 0.00 in
19:14 73.9 °F 61.4 °F 29.95 in WSW 7.0 mph 17.0 mph 65% 0.00 in
19:19 73.5 °F 61.4 °F 29.95 in SSW 9.0 mph 17.0 mph 66% 0.00 in
19:24 73.3 °F 61.7 °F 29.95 in WSW 10.0 mph 14.0 mph 67% 0.00 in
19:29 73.2 °F 61.6 °F 29.95 in SW 8.0 mph 14.0 mph 67% 0.00 in
19:34 73.1 °F 61.9 °F 29.94 in SW 8.0 mph 15.0 mph 68% 0.00 in
19:39 72.9 °F 61.7 °F 29.94 in SW 7.0 mph 15.0 mph 68% 0.00 in
19:44 72.9 °F 61.7 °F 29.94 in SW 7.0 mph 15.0 mph 68% 0.00 in
19:49 72.6 °F 61.4 °F 29.94 in SW 8.0 mph 12.0 mph 68% 0.00 in
19:54 72.4 °F 61.7 °F 29.93 in WSW 8.0 mph 14.0 mph 69% 0.00 in
19:59 72.1 °F 61.4 °F 29.93 in WSW 7.0 mph 15.0 mph 69% 0.00 in
20:04 71.9 °F 61.6 °F 29.93 in SW 2.0 mph 12.0 mph 70% 0.00 in
20:09 71.7 °F 61.8 °F 29.93 in West 7.0 mph 13.0 mph 71% 0.00 in
20:14 71.4 °F 61.5 °F 29.93 in West 7.0 mph 15.0 mph 71% 0.00 in
20:19 71.4 °F 61.9 °F 29.93 in SW 5.0 mph 15.0 mph 72% 0.00 in
20:24 71.3 °F 61.8 °F 29.93 in West 4.0 mph 12.0 mph 72% 0.00 in
20:29 71.2 °F 61.7 °F 29.93 in SW 6.0 mph 12.0 mph 72% 0.00 in
20:34 71.1 °F 61.6 °F 29.93 in SW 6.0 mph 13.0 mph 72% 0.00 in
20:39 71.0 °F 61.5 °F 29.93 in SW 7.0 mph 13.0 mph 72% 0.00 in
20:44 70.9 °F 61.4 °F 29.93 in WSW 5.0 mph 12.0 mph 72% 0.00 in
20:49 71.0 °F 61.5 °F 29.94 in SSW 5.0 mph 13.0 mph 72% 0.00 in
20:54 71.0 °F 61.5 °F 29.94 in West 7.0 mph 17.0 mph 72% 0.00 in
20:59 71.0 °F 61.5 °F 29.94 in SW 4.0 mph 13.0 mph 72% 0.00 in
21:04 70.9 °F 61.8 °F 29.93 in SW 4.0 mph 10.0 mph 73% 0.00 in
21:09 70.8 °F 61.7 °F 29.93 in WSW 4.0 mph 11.0 mph 73% 0.00 in
21:14 70.9 °F 61.8 °F 29.93 in WSW 3.0 mph 10.0 mph 73% 0.00 in
21:19 70.9 °F 61.8 °F 29.93 in SW 6.0 mph 12.0 mph 73% 0.00 in
21:24 71.0 °F 61.9 °F 29.94 in SW 7.0 mph 13.0 mph 73% 0.00 in
21:29 71.0 °F 61.9 °F 29.94 in WSW 6.0 mph 13.0 mph 73% 0.00 in
21:34 71.1 °F 62.0 °F 29.94 in WSW 6.0 mph 13.0 mph 73% 0.00 in
21:39 71.1 °F 62.0 °F 29.94 in SW 6.0 mph 13.0 mph 73% 0.00 in
21:44 71.1 °F 62.0 °F 29.94 in SW 6.0 mph 15.0 mph 73% 0.00 in
21:49 71.1 °F 62.0 °F 29.93 in SW 5.0 mph 13.0 mph 73% 0.00 in
21:54 71.1 °F 62.0 °F 29.94 in WNW 8.0 mph 13.0 mph 73% 0.00 in
21:59 71.2 °F 62.1 °F 29.94 in SW 6.0 mph 13.0 mph 73% 0.00 in
22:04 71.4 °F 61.9 °F 29.94 in SSE 6.0 mph 14.0 mph 72% 0.00 in
22:09 71.5 °F 62.0 °F 29.94 in SW 6.0 mph 15.0 mph 72% 0.00 in
22:14 71.5 °F 62.0 °F 29.94 in South 3.0 mph 9.0 mph 72% 0.00 in
22:19 71.5 °F 62.0 °F 29.93 in SW 9.0 mph 12.0 mph 72% 0.00 in
22:24 71.4 °F 61.9 °F 29.93 in WSW 11.0 mph 15.0 mph 72% 0.00 in
22:29 71.4 °F 61.5 °F 29.94 in WSW 6.0 mph 17.0 mph 71% 0.00 in
22:34 71.4 °F 61.9 °F 29.94 in SW 7.0 mph 17.0 mph 72% 0.00 in
22:39 71.4 °F 61.9 °F 29.94 in SW 7.0 mph 15.0 mph 72% 0.00 in
22:44 71.3 °F 61.8 °F 29.94 in WSW 8.0 mph 14.0 mph 72% 0.00 in
22:49 71.3 °F 61.8 °F 29.94 in WSW 4.0 mph 13.0 mph 72% 0.00 in
22:54 71.1 °F 62.0 °F 29.94 in SW 10.0 mph 12.0 mph 73% 0.00 in
22:59 71.1 °F 62.0 °F 29.94 in WSW 6.0 mph 14.0 mph 73% 0.00 in
23:04 71.1 °F 62.0 °F 29.94 in WSW 6.0 mph 14.0 mph 73% 0.00 in
23:09 70.9 °F 61.8 °F 29.94 in WSW 6.0 mph 14.0 mph 73% 0.00 in
23:14 70.8 °F 62.1 °F 29.95 in WSW 6.0 mph 12.0 mph 74% 0.00 in
23:19 70.8 °F 62.1 °F 29.95 in WSW 7.0 mph 12.0 mph 74% 0.00 in
23:24 70.8 °F 62.1 °F 29.95 in WSW 6.0 mph 12.0 mph 74% 0.00 in
23:29 70.7 °F 62.4 °F 29.95 in SW 8.0 mph 12.0 mph 75% 0.00 in
23:34 70.8 °F 62.5 °F 29.95 in SSW 2.0 mph 15.0 mph 75% 0.00 in
23:39 70.7 °F 62.4 °F 29.95 in West 7.0 mph 11.0 mph 75% 0.00 in
23:44 70.6 °F 62.3 °F 29.95 in WSW 3.0 mph 12.0 mph 75% 0.00 in
23:49 70.6 °F 62.3 °F 29.96 in South 7.0 mph 11.0 mph 75% 0.00 in
23:54 70.6 °F 62.7 °F 29.96 in SW 4.0 mph 12.0 mph 76% 0.00 in
23:59 70.6 °F 62.7 °F 29.95 in WSW 6.0 mph 12.0 mph 76% 0.00 in
Buffalo, New York, USA
Compliments of Weather Underground - 2.5 mb